createdAt,value
2022-11-01T00:01:25.849Z,100.00
2022-11-01T00:06:28.623Z,100.00
2022-11-01T00:11:31.410Z,100.00
2022-11-01T00:16:35.436Z,100.00
2022-11-01T00:21:38.364Z,100.00
2022-11-01T00:26:41.253Z,100.00
2022-11-01T00:31:45.383Z,100.00
2022-11-01T00:36:48.124Z,100.00
2022-11-01T00:41:50.752Z,100.00
2022-11-01T00:46:54.831Z,100.00
2022-11-01T00:51:57.404Z,100.00
2022-11-01T00:56:59.997Z,100.00
2022-11-01T01:02:04.094Z,100.00
2022-11-01T01:07:06.773Z,100.00
2022-11-01T01:12:09.368Z,100.00
2022-11-01T01:17:13.457Z,100.00
2022-11-01T01:22:16.109Z,100.00
2022-11-01T01:27:19.252Z,100.00
2022-11-01T01:32:24.854Z,100.00
2022-11-01T01:37:27.525Z,100.00
2022-11-01T01:42:31.773Z,100.00
2022-11-01T01:47:37.772Z,100.00
2022-11-01T01:52:45.042Z,100.00
2022-11-01T01:57:48.176Z,100.00
2022-11-01T02:02:52.352Z,99.93
2022-11-01T02:07:57.080Z,99.17
2022-11-01T02:12:59.875Z,100.00
2022-11-01T02:18:12.714Z,100.00
2022-11-01T02:23:55.638Z,100.00
2022-11-01T02:29:14.423Z,100.00
2022-11-01T02:34:25.146Z,100.00
2022-11-01T02:39:31.670Z,100.00
2022-11-01T02:44:38.387Z,100.00
2022-11-01T02:49:46.509Z,100.00
2022-11-01T02:54:53.429Z,100.00
2022-11-01T03:00:02.981Z,100.00
2022-11-01T03:05:11.423Z,100.00
2022-11-01T03:10:14.598Z,100.00
2022-11-01T03:15:23.304Z,100.00
2022-11-01T03:20:47.401Z,100.00
2022-11-01T03:25:55.409Z,100.00
2022-11-01T03:31:03.545Z,100.00
2022-11-01T03:36:14.495Z,100.00
2022-11-01T03:41:19.368Z,100.00
2022-11-01T03:46:22.308Z,100.00
2022-11-01T03:51:26.248Z,100.00
2022-11-01T03:56:28.848Z,100.00
2022-11-01T04:01:31.635Z,100.00
2022-11-01T04:06:35.745Z,100.00
2022-11-01T04:11:38.365Z,100.00
2022-11-01T04:16:58.457Z,100.00
2022-11-01T04:22:04.196Z,100.00
2022-11-01T04:27:06.919Z,100.00
2022-11-01T04:32:09.515Z,100.00
2022-11-01T04:37:14.116Z,100.00
2022-11-01T04:42:16.670Z,100.00
2022-11-01T04:47:19.378Z,100.00
2022-11-01T04:52:23.976Z,100.00
2022-11-01T04:57:26.578Z,100.00
2022-11-01T05:02:31.188Z,100.00
2022-11-01T05:07:35.369Z,100.00
2022-11-01T05:12:38.511Z,100.00
2022-11-01T05:17:42.777Z,100.00
2022-11-01T05:22:46.706Z,100.00
2022-11-01T05:27:49.274Z,100.00
2022-11-01T05:32:56.998Z,100.00
2022-11-01T05:38:02.688Z,100.00
2022-11-01T05:43:06.651Z,100.00
2022-11-01T05:48:09.337Z,100.00
2022-11-01T05:53:13.547Z,100.00
2022-11-01T05:58:16.199Z,100.00
2022-11-01T06:03:18.882Z,100.00
2022-11-01T06:08:22.855Z,100.00
2022-11-01T06:13:25.394Z,100.00
2022-11-01T06:18:28.058Z,100.00
2022-11-01T06:23:32.054Z,100.00
2022-11-01T06:28:34.855Z,100.00
2022-11-01T06:33:37.459Z,100.00
2022-11-01T06:38:41.439Z,100.00
2022-11-01T06:43:44.118Z,100.00
2022-11-01T06:48:48.895Z,100.00
2022-11-01T06:53:52.809Z,100.00
2022-11-01T06:58:55.447Z,100.00
2022-11-01T07:03:58.128Z,100.00
2022-11-01T07:09:02.454Z,100.00
2022-11-01T07:14:05.283Z,100.00
2022-11-01T07:19:07.958Z,100.00
2022-11-01T07:24:11.933Z,100.00
2022-11-01T07:29:14.537Z,100.00
2022-11-01T07:34:17.284Z,100.00
2022-11-01T07:39:23.893Z,100.00
2022-11-01T07:44:33.778Z,98.58
2022-11-01T07:49:44.416Z,100.00
2022-11-01T07:54:51.547Z,99.39
2022-11-01T07:59:54.257Z,97.92
2022-11-01T08:04:56.991Z,98.36
2022-11-01T08:10:00.994Z,98.76
2022-11-01T08:15:03.785Z,95.90
2022-11-01T08:20:07.615Z,96.13
2022-11-01T08:25:11.889Z,96.18
2022-11-01T08:30:14.706Z,94.03
2022-11-01T08:35:20.441Z,94.02
2022-11-01T08:40:24.707Z,92.03
2022-11-01T08:45:27.791Z,89.62
2022-11-01T08:50:49.162Z,87.75
2022-11-01T08:56:00.456Z,86.34
2022-11-01T09:01:19.585Z,85.97
2022-11-01T09:06:24.595Z,85.19
2022-11-01T09:11:35.604Z,87.36
2022-11-01T09:16:38.315Z,89.72
2022-11-01T09:21:41.137Z,88.90
2022-11-01T09:26:45.593Z,92.09
2022-11-01T09:31:56.175Z,91.22
2022-11-01T09:36:58.883Z,93.70
2022-11-01T09:42:32.123Z,92.88
2022-11-01T09:48:25.877Z,92.73
2022-11-01T09:53:45.393Z,94.55
2022-11-01T09:59:47.685Z,94.01
2022-11-01T10:05:55.330Z,93.06
2022-11-01T10:11:27.233Z,89.06
2022-11-01T10:16:53.448Z,91.28
2022-11-01T10:22:08.819Z,93.84
2022-11-01T10:27:19.790Z,91.28
2022-11-01T10:32:44.008Z,90.83
2022-11-01T10:38:04.356Z,90.56
2022-11-01T10:43:25.020Z,90.19
2022-11-01T10:48:33.774Z,87.84
2022-11-01T10:53:42.227Z,90.36
2022-11-01T10:58:50.778Z,91.33
2022-11-01T11:03:55.456Z,91.13
2022-11-01T11:08:59.450Z,88.39
2022-11-01T11:14:06.997Z,86.45
2022-11-01T11:19:19.606Z,85.89
2022-11-01T11:24:24.667Z,83.26
2022-11-01T11:29:38.892Z,84.60
2022-11-01T11:34:42.243Z,84.15
2022-11-01T11:40:03.453Z,82.44
2022-11-01T11:45:18.677Z,80.04
2022-11-01T11:50:32.764Z,80.08
2022-11-01T11:55:42.150Z,78.60
2022-11-01T12:00:50.038Z,75.83
2022-11-01T12:05:59.826Z,77.27
2022-11-01T12:11:04.620Z,77.24
2022-11-01T12:16:17.125Z,75.69
2022-11-01T12:21:22.872Z,71.44
2022-11-01T12:26:29.077Z,75.36
2022-11-01T12:31:33.134Z,74.27
2022-11-01T12:36:43.675Z,73.29
2022-11-01T12:41:51.321Z,71.07
2022-11-01T12:46:58.880Z,68.39
2022-11-01T12:52:08.175Z,69.97
2022-11-01T12:57:16.077Z,66.17
2022-11-01T13:02:39.120Z,65.17
2022-11-01T13:07:54.108Z,67.21
2022-11-01T13:13:07.028Z,69.54
2022-11-01T13:18:19.975Z,68.88
2022-11-01T13:23:30.384Z,66.16
2022-11-01T13:28:49.968Z,64.81
2022-11-01T13:34:04.995Z,61.88
2022-11-01T13:39:20.579Z,61.08
2022-11-01T13:44:26.461Z,62.63
2022-11-01T13:50:19.640Z,64.47
2022-11-01T13:55:29.195Z,63.60
2022-11-01T14:00:41.462Z,68.52
2022-11-01T14:05:46.230Z,66.21
2022-11-01T14:10:52.080Z,58.08
2022-11-01T14:16:20.415Z,54.27
2022-11-01T14:21:31.390Z,52.74
2022-11-01T14:27:03.367Z,55.51
2022-11-01T14:32:07.074Z,57.96
2022-11-01T14:37:18.604Z,61.64
2022-11-01T14:42:27.410Z,63.32
2022-11-01T14:47:36.628Z,66.45
2022-11-01T14:52:42.563Z,67.86
2022-11-01T14:57:48.520Z,67.29
2022-11-01T15:02:51.962Z,67.67
2022-11-01T15:07:56.609Z,72.85
2022-11-01T15:13:03.288Z,70.57
2022-11-01T15:18:14.230Z,69.90
2022-11-01T15:23:20.871Z,71.43
2022-11-01T15:28:27.169Z,75.57
2022-11-01T15:33:31.616Z,79.24
2022-11-01T15:38:36.104Z,79.51
2022-11-01T15:43:40.368Z,84.61
2022-11-01T15:48:42.879Z,88.12
2022-11-01T15:53:45.660Z,85.55
2022-11-01T15:58:53.693Z,85.38
2022-11-01T16:04:01.237Z,81.71
2022-11-01T16:09:08.969Z,80.63
2022-11-01T16:14:23.992Z,79.99
2022-11-01T16:19:37.066Z,82.89
2022-11-01T16:24:39.819Z,83.62
2022-11-01T16:29:51.020Z,83.33
2022-11-01T16:34:55.304Z,91.17
2022-11-01T16:39:59.018Z,92.95
2022-11-01T16:45:02.985Z,96.29
2022-11-01T16:50:06.320Z,90.14
2022-11-01T16:55:11.202Z,90.54
2022-11-01T17:00:16.671Z,92.78
2022-11-01T17:05:23.540Z,97.38
2022-11-01T17:10:26.700Z,100.00
2022-11-01T17:15:36.123Z,100.00
2022-11-01T17:20:41.195Z,99.15
2022-11-01T17:25:47.505Z,99.77
2022-11-01T17:30:52.108Z,99.53
2022-11-01T17:35:54.755Z,94.60
2022-11-01T17:40:57.870Z,90.60
2022-11-01T17:46:02.602Z,93.21
2022-11-01T17:51:05.419Z,92.27
2022-11-01T17:56:08.402Z,100.00
2022-11-01T18:01:13.280Z,100.00
2022-11-01T18:06:16.244Z,100.00
2022-11-01T18:11:35.102Z,100.00
2022-11-01T18:16:46.815Z,100.00
2022-11-01T18:21:57.232Z,100.00
2022-11-01T18:26:59.952Z,100.00
2022-11-01T18:32:10.537Z,100.00
2022-11-01T18:37:22.673Z,100.00
2022-11-01T18:42:26.467Z,100.00
2022-11-01T18:47:35.770Z,100.00
2022-11-01T18:52:38.417Z,100.00
2022-11-01T18:57:41.108Z,100.00
2022-11-01T19:02:44.997Z,100.00
2022-11-01T19:13:24.298Z,100.00
2022-11-01T19:18:28.563Z,100.00
2022-11-01T19:23:37.299Z,100.00
2022-11-01T19:28:40.522Z,100.00
2022-11-01T19:33:48.106Z,97.76
2022-11-01T19:38:50.859Z,94.17
2022-11-01T19:43:54.952Z,96.38
2022-11-01T19:48:59.689Z,94.44
2022-11-01T19:54:02.226Z,95.03
2022-11-01T19:59:13.055Z,94.92
2022-11-01T20:04:27.399Z,95.42
2022-11-01T20:09:35.492Z,95.21
2022-11-01T20:14:39.050Z,93.76
2022-11-01T20:19:43.635Z,95.43
2022-11-01T20:24:47.147Z,96.99
2022-11-01T20:29:49.918Z,100.00
2022-11-01T20:34:53.830Z,100.00
2022-11-01T20:39:56.377Z,96.67
2022-11-01T20:44:59.119Z,96.63
2022-11-01T20:50:04.834Z,96.56
2022-11-01T20:55:09.531Z,93.60
2022-11-01T21:00:14.439Z,93.28
2022-11-01T21:05:23.800Z,91.94
2022-11-01T21:10:34.153Z,94.13
2022-11-01T21:15:38.919Z,93.76
2022-11-01T21:20:46.213Z,95.03
2022-11-01T21:25:49.842Z,93.41
2022-11-01T21:30:53.717Z,91.74
2022-11-01T21:35:57.699Z,91.14
2022-11-01T21:41:00.433Z,95.48
2022-11-01T21:46:02.989Z,100.00
2022-11-01T21:51:07.508Z,93.64
2022-11-01T21:56:10.125Z,92.92
2022-11-01T22:01:13.837Z,90.93
2022-11-01T22:06:18.087Z,93.09
2022-11-01T22:11:23.643Z,95.27
2022-11-01T22:16:26.465Z,98.65
2022-11-01T22:21:31.111Z,100.00
2022-11-01T22:26:33.976Z,100.00
2022-11-01T22:31:36.578Z,100.00
2022-11-01T22:36:42.547Z,98.90
2022-11-01T22:41:45.409Z,98.43
2022-11-01T22:46:55.181Z,100.00
2022-11-01T22:52:05.146Z,100.00
2022-11-01T22:57:16.152Z,96.54
2022-11-01T23:02:26.981Z,95.65
2022-11-01T23:07:34.189Z,97.51
2022-11-01T23:12:55.376Z,100.00
2022-11-01T23:18:03.555Z,98.65
2022-11-01T23:23:18.927Z,96.99
2022-11-01T23:28:21.985Z,93.44
2022-11-01T23:33:33.709Z,95.34
2022-11-01T23:38:41.806Z,94.80
2022-11-01T23:43:44.446Z,95.00
2022-11-01T23:48:47.296Z,95.64
2022-11-01T23:53:53.912Z,96.71
2022-11-01T23:59:00.577Z,94.39
